RYR9RE LPPR-LFOB
Flight info
| Callsign | RYR9RE |
|---|---|
| Flight time | 1h 51m |
| Altitude | 24000 |
| Route | TURON P600 ASDEB/N0435F340 DCT LOTEE DCT NOVAN DCT AZFIC UN741 MOKOR UN873 RONAX/N0340F180 J55 LGL Z295 PEXIR |
| Aircraft | B738/M-SDE2E3FGHIRWXY/LB1 |
Departure
| Time | 2026-04-25 22:16 |
|---|---|
| Airport | Francisco de Sá Carneiro Airport (LPPR) |
Arrival
| Time | 2026-04-26 00:08 |
|---|---|
| Airport | Beauvais-Tillé airport (LFOB) |
| Time | Latitude | Longitude | Altitude | Speed | Heading |
|---|---|---|---|---|---|
| 2026-04-25 21:59 | 41.23924 | -8.67321 | 234 ft | 0 kts | 124° |
| 2026-04-25 22:09 | 41.23932 | -8.67336 | 237 ft | 4 kts | 124° |
| 2026-04-25 22:09 | 41.23947 | -8.67365 | 236 ft | 4 kts | 124° |
| 2026-04-25 22:09 | 41.23961 | -8.67393 | 239 ft | 3 kts | 124° |
| 2026-04-25 22:10 | 41.23978 | -8.67414 | 240 ft | 4 kts | 172° |
| 2026-04-25 22:10 | 41.24003 | -8.67409 | 236 ft | 3 kts | 208° |
| 2026-04-25 22:10 | 41.24011 | -8.67404 | 238 ft | 0 kts | 210° |
| 2026-04-25 22:12 | 41.24010 | -8.67404 | 238 ft | 1 kts | 210° |
| 2026-04-25 22:13 | 41.23952 | -8.67462 | 237 ft | 15 kts | 236° |
| 2026-04-25 22:13 | 41.23931 | -8.67547 | 234 ft | 6 kts | 261° |
| 2026-04-25 22:13 | 41.23924 | -8.67597 | 234 ft | 5 kts | 257° |
| 2026-04-25 22:13 | 41.23916 | -8.67646 | 238 ft | 5 kts | 257° |
| 2026-04-25 22:14 | 41.23908 | -8.67694 | 234 ft | 5 kts | 258° |
| 2026-04-25 22:14 | 41.23905 | -8.67713 | 237 ft | 1 kts | 257° |
| 2026-04-25 22:14 | 41.23901 | -8.67737 | 235 ft | 6 kts | 258° |
| 2026-04-25 22:14 | 41.23889 | -8.67819 | 234 ft | 5 kts | 261° |
| 2026-04-25 22:15 | 41.23884 | -8.67857 | 233 ft | 1 kts | 260° |
| 2026-04-25 22:15 | 41.23883 | -8.67875 | 233 ft | 2 kts | 282° |
| 2026-04-25 22:15 | 41.23896 | -8.67882 | 236 ft | 5 kts | 347° |
| 2026-04-25 22:16 | 41.24684 | -8.68088 | 237 ft | 115 kts | 349° |
| 2026-04-25 22:16 | 41.25626 | -8.68332 | 282 ft | 154 kts | 349° |
| 2026-04-25 22:16 | 41.26689 | -8.68598 | 784 ft | 157 kts | 350° |
| 2026-04-25 22:16 | 41.27768 | -8.68869 | 1310 ft | 162 kts | 349° |
| 2026-04-25 22:17 | 41.28875 | -8.69174 | 1707 ft | 165 kts | 349° |
| 2026-04-25 22:17 | 41.30026 | -8.69372 | 2077 ft | 168 kts | 4° |
| 2026-04-25 22:17 | 41.31193 | -8.69537 | 2472 ft | 171 kts | 348° |
| 2026-04-25 22:17 | 41.32362 | -8.69885 | 2872 ft | 172 kts | 350° |
| 2026-04-25 22:18 | 41.33548 | -8.70217 | 3266 ft | 179 kts | 350° |
| 2026-04-25 22:18 | 41.34851 | -8.70575 | 3471 ft | 201 kts | 349° |
| 2026-04-25 22:18 | 41.36264 | -8.70943 | 3633 ft | 219 kts | 352° |
| 2026-04-25 22:18 | 41.37835 | -8.71170 | 3751 ft | 237 kts | 3° |
| 2026-04-25 22:19 | 41.39537 | -8.70916 | 3882 ft | 256 kts | 9° |
| 2026-04-25 22:19 | 41.41337 | -8.70507 | 4353 ft | 265 kts | 11° |
| 2026-04-25 22:19 | 41.43161 | -8.70075 | 4996 ft | 267 kts | 11° |
| 2026-04-25 22:19 | 41.45004 | -8.69645 | 5614 ft | 271 kts | 11° |
| 2026-04-25 22:20 | 41.46878 | -8.69216 | 6219 ft | 275 kts | 11° |
| 2026-04-25 22:20 | 41.48776 | -8.68791 | 6827 ft | 279 kts | 11° |
| 2026-04-25 22:20 | 41.50610 | -8.67985 | 7420 ft | 279 kts | 31° |
| 2026-04-25 22:20 | 41.52265 | -8.66602 | 8069 ft | 281 kts | 34° |
| 2026-04-25 22:21 | 41.53917 | -8.65152 | 8706 ft | 285 kts | 34° |
| 2026-04-25 22:21 | 41.55585 | -8.63682 | 9373 ft | 289 kts | 34° |
| 2026-04-25 22:21 | 41.57276 | -8.62201 | 10048 ft | 292 kts | 34° |
| 2026-04-25 22:21 | 41.59005 | -8.60697 | 10460 ft | 305 kts | 33° |
| 2026-04-25 22:22 | 41.60852 | -8.59100 | 10615 ft | 326 kts | 33° |
| 2026-04-25 22:22 | 41.62789 | -8.57433 | 10866 ft | 342 kts | 33° |
| 2026-04-25 22:22 | 41.64814 | -8.55696 | 11404 ft | 348 kts | 33° |
| 2026-04-25 22:22 | 41.66858 | -8.53948 | 12086 ft | 349 kts | 33° |
| 2026-04-25 22:23 | 41.68913 | -8.52191 | 12780 ft | 351 kts | 32° |
| 2026-04-25 22:23 | 41.70989 | -8.50418 | 13455 ft | 354 kts | 32° |
| 2026-04-25 22:23 | 41.73076 | -8.48635 | 14132 ft | 357 kts | 32° |
| 2026-04-25 22:23 | 41.75178 | -8.46838 | 14722 ft | 361 kts | 32° |
| 2026-04-25 22:24 | 41.77315 | -8.45012 | 15310 ft | 366 kts | 32° |
| 2026-04-25 22:24 | 41.79470 | -8.43167 | 15917 ft | 370 kts | 32° |
| 2026-04-25 22:24 | 41.81654 | -8.41297 | 16518 ft | 374 kts | 32° |
| 2026-04-25 22:24 | 41.83860 | -8.39406 | 17101 ft | 379 kts | 32° |
| 2026-04-25 22:25 | 41.86093 | -8.37491 | 17700 ft | 383 kts | 32° |
| 2026-04-25 22:25 | 41.88348 | -8.35555 | 18288 ft | 387 kts | 33° |
| 2026-04-25 22:25 | 41.90629 | -8.33595 | 18825 ft | 390 kts | 32° |
| 2026-04-25 22:25 | 41.92925 | -8.31621 | 19372 ft | 393 kts | 32° |
| 2026-04-25 22:26 | 41.95227 | -8.29639 | 20051 ft | 391 kts | 32° |
| 2026-04-25 22:26 | 41.97477 | -8.27701 | 20777 ft | 388 kts | 32° |
| 2026-04-25 22:26 | 41.99748 | -8.25743 | 21471 ft | 386 kts | 32° |
| 2026-04-25 22:26 | 42.02009 | -8.23792 | 22137 ft | 385 kts | 32° |
| 2026-04-25 22:27 | 42.04259 | -8.21849 | 22839 ft | 383 kts | 32° |
| 2026-04-25 22:27 | 42.06496 | -8.19915 | 23525 ft | 381 kts | 32° |
| 2026-04-25 22:27 | 42.08725 | -8.17987 | 24045 ft | 381 kts | 32° |
| 2026-04-25 22:27 | 42.10958 | -8.16053 | 24094 ft | 380 kts | 32° |
| 2026-04-25 22:28 | 42.13180 | -8.14128 | 24119 ft | 381 kts | 32° |
| 2026-04-25 22:28 | 42.15440 | -8.12168 | 24187 ft | 392 kts | 32° |
| 2026-04-25 22:28 | 42.17771 | -8.10145 | 24296 ft | 405 kts | 32° |
| 2026-04-25 22:28 | 42.20172 | -8.08060 | 24385 ft | 417 kts | 32° |
| 2026-04-25 22:29 | 42.22645 | -8.05910 | 24469 ft | 428 kts | 32° |
| 2026-04-25 22:29 | 42.25150 | -8.03729 | 24549 ft | 438 kts | 32° |
| 2026-04-25 22:29 | 42.27741 | -8.01472 | 24637 ft | 448 kts | 32° |
| 2026-04-25 22:30 | 42.33058 | -7.96831 | 24997 ft | 459 kts | 32° |
| 2026-04-25 22:30 | 42.35744 | -7.94483 | 25393 ft | 459 kts | 32° |
| 2026-04-25 22:30 | 42.38426 | -7.92135 | 25934 ft | 455 kts | 32° |
| 2026-04-25 22:30 | 42.40189 | -7.90590 | 26305 ft | 452 kts | 32° |
| 2026-04-25 22:31 | 42.43690 | -7.87520 | 26958 ft | 450 kts | 32° |
| 2026-04-25 22:31 | 42.46319 | -7.85213 | 27377 ft | 449 kts | 32° |
| 2026-04-25 22:31 | 42.47509 | -7.84168 | 27568 ft | 449 kts | 32° |
| 2026-04-25 22:32 | 42.50129 | -7.81866 | 28031 ft | 448 kts | 32° |
| 2026-04-25 22:32 | 42.52743 | -7.79566 | 28523 ft | 445 kts | 32° |
| 2026-04-25 22:32 | 42.55333 | -7.77285 | 29000 ft | 444 kts | 32° |
| 2026-04-25 22:32 | 42.57757 | -7.75148 | 29440 ft | 442 kts | 32° |
| 2026-04-25 22:33 | 42.59469 | -7.73637 | 29758 ft | 441 kts | 32° |
| 2026-04-25 22:33 | 42.62878 | -7.70627 | 30309 ft | 440 kts | 32° |
| 2026-04-25 22:33 | 42.65447 | -7.68355 | 30655 ft | 439 kts | 32° |
| 2026-04-25 22:33 | 42.68010 | -7.66087 | 31005 ft | 438 kts | 32° |
| 2026-04-25 22:34 | 42.69706 | -7.64585 | 31246 ft | 438 kts | 32° |
| 2026-04-25 22:34 | 42.72264 | -7.62317 | 31603 ft | 437 kts | 32° |
| 2026-04-25 22:34 | 42.74816 | -7.60053 | 31940 ft | 436 kts | 31° |
| 2026-04-25 22:34 | 42.77328 | -7.57821 | 32289 ft | 435 kts | 31° |
| 2026-04-25 22:35 | 42.79866 | -7.55565 | 32634 ft | 434 kts | 31° |
| 2026-04-25 22:35 | 42.81226 | -7.54354 | 32806 ft | 434 kts | 31° |
| 2026-04-25 22:35 | 42.83747 | -7.52109 | 33116 ft | 434 kts | 31° |
| 2026-04-25 22:35 | 42.86268 | -7.49862 | 33433 ft | 433 kts | 31° |
| 2026-04-25 22:36 | 42.88786 | -7.47616 | 33767 ft | 432 kts | 31° |
| 2026-04-25 22:36 | 42.91297 | -7.45372 | 34073 ft | 431 kts | 31° |
| 2026-04-25 22:36 | 42.96330 | -7.40871 | 34173 ft | 433 kts | 31° |
| 2026-04-25 22:37 | 43.01333 | -7.36387 | 34177 ft | 432 kts | 31° |
| 2026-04-25 22:37 | 43.06342 | -7.31887 | 34176 ft | 430 kts | 31° |
| 2026-04-25 22:38 | 43.11333 | -7.27396 | 34178 ft | 428 kts | 31° |
| 2026-04-25 22:38 | 43.16308 | -7.22911 | 34185 ft | 428 kts | 31° |
| 2026-04-25 22:39 | 43.21283 | -7.18417 | 34188 ft | 428 kts | 31° |
| 2026-04-25 22:39 | 43.26259 | -7.13913 | 34190 ft | 429 kts | 31° |
| 2026-04-25 22:40 | 43.30684 | -7.09900 | 34188 ft | 430 kts | 31° |
| 2026-04-25 22:40 | 43.35719 | -7.05326 | 34197 ft | 432 kts | 31° |
| 2026-04-25 22:41 | 43.40739 | -7.00755 | 34201 ft | 434 kts | 32° |
| 2026-04-25 22:41 | 43.45778 | -6.96158 | 34206 ft | 435 kts | 32° |
| 2026-04-25 22:42 | 43.50832 | -6.91538 | 34192 ft | 437 kts | 32° |
| 2026-04-25 22:42 | 43.55899 | -6.86896 | 34200 ft | 438 kts | 32° |
| 2026-04-25 22:43 | 43.60943 | -6.82266 | 34196 ft | 439 kts | 32° |
| 2026-04-25 22:43 | 43.66032 | -6.77585 | 34202 ft | 440 kts | 32° |
| 2026-04-25 22:44 | 43.71123 | -6.72893 | 34204 ft | 440 kts | 32° |
| 2026-04-25 22:44 | 43.76221 | -6.68184 | 34206 ft | 441 kts | 32° |
| 2026-04-25 22:45 | 43.81327 | -6.63457 | 34205 ft | 442 kts | 32° |
| 2026-04-25 22:45 | 43.86434 | -6.58721 | 34209 ft | 442 kts | 32° |
| 2026-04-25 22:46 | 43.91546 | -6.53969 | 34210 ft | 443 kts | 32° |
| 2026-04-25 22:46 | 43.96664 | -6.49202 | 34215 ft | 443 kts | 33° |
| 2026-04-25 22:47 | 44.01784 | -6.44424 | 34206 ft | 444 kts | 33° |
| 2026-04-25 22:47 | 44.06906 | -6.39632 | 34209 ft | 444 kts | 33° |
| 2026-04-25 22:48 | 44.12039 | -6.34821 | 34213 ft | 445 kts | 33° |
| 2026-04-25 22:48 | 44.17176 | -6.29995 | 34216 ft | 446 kts | 33° |
| 2026-04-25 22:49 | 44.22329 | -6.25145 | 34217 ft | 447 kts | 33° |
| 2026-04-25 22:49 | 44.27485 | -6.20281 | 34213 ft | 448 kts | 34° |
| 2026-04-25 22:50 | 44.32658 | -6.15389 | 34216 ft | 450 kts | 34° |
| 2026-04-25 22:50 | 44.37844 | -6.10475 | 34213 ft | 451 kts | 34° |
| 2026-04-25 22:51 | 44.43050 | -6.05532 | 34215 ft | 453 kts | 34° |
| 2026-04-25 22:51 | 44.48244 | -6.00588 | 34218 ft | 455 kts | 34° |
| 2026-04-25 22:52 | 44.53497 | -5.95578 | 34220 ft | 458 kts | 35° |
| 2026-04-25 22:52 | 44.57879 | -5.91389 | 34221 ft | 459 kts | 35° |
| 2026-04-25 22:53 | 44.64061 | -5.85468 | 34222 ft | 461 kts | 35° |
| 2026-04-25 22:53 | 44.69115 | -5.79924 | 34229 ft | 461 kts | 42° |
| 2026-04-25 22:54 | 44.73917 | -5.73923 | 34218 ft | 462 kts | 43° |
| 2026-04-25 22:54 | 44.78713 | -5.67887 | 34222 ft | 463 kts | 43° |
| 2026-04-25 22:55 | 44.83525 | -5.61871 | 34220 ft | 463 kts | 43° |
| 2026-04-25 22:55 | 44.88343 | -5.55864 | 34220 ft | 462 kts | 43° |
| 2026-04-25 22:56 | 44.93158 | -5.49856 | 34219 ft | 462 kts | 43° |
| 2026-04-25 22:56 | 44.97934 | -5.43881 | 34222 ft | 461 kts | 43° |
| 2026-04-25 22:57 | 45.02731 | -5.37864 | 34219 ft | 461 kts | 44° |
| 2026-04-25 22:57 | 45.07525 | -5.31836 | 34221 ft | 460 kts | 44° |
| 2026-04-25 22:58 | 45.12310 | -5.25807 | 34219 ft | 460 kts | 44° |
| 2026-04-25 22:58 | 45.17082 | -5.19778 | 34215 ft | 459 kts | 44° |
| 2026-04-25 22:59 | 45.21816 | -5.13785 | 34218 ft | 458 kts | 44° |
| 2026-04-25 22:59 | 45.26567 | -5.07755 | 34217 ft | 458 kts | 44° |
| 2026-04-25 23:00 | 45.31306 | -5.01726 | 34213 ft | 457 kts | 44° |
| 2026-04-25 23:00 | 45.36041 | -4.95688 | 34213 ft | 457 kts | 44° |
| 2026-04-25 23:01 | 45.40767 | -4.89648 | 34218 ft | 456 kts | 44° |
| 2026-04-25 23:01 | 45.45491 | -4.83596 | 34217 ft | 456 kts | 44° |
| 2026-04-25 23:02 | 45.50206 | -4.77542 | 34212 ft | 456 kts | 44° |
| 2026-04-25 23:02 | 45.54914 | -4.71479 | 34217 ft | 456 kts | 44° |
| 2026-04-25 23:03 | 45.59632 | -4.65392 | 34220 ft | 458 kts | 44° |
| 2026-04-25 23:03 | 45.64362 | -4.59276 | 34221 ft | 459 kts | 44° |
| 2026-04-25 23:04 | 45.68307 | -4.54164 | 34214 ft | 460 kts | 44° |
| 2026-04-25 23:04 | 45.73819 | -4.47003 | 34209 ft | 460 kts | 44° |
| 2026-04-25 23:05 | 45.78550 | -4.40841 | 34207 ft | 459 kts | 44° |
| 2026-04-25 23:05 | 45.83274 | -4.34674 | 34211 ft | 458 kts | 44° |
| 2026-04-25 23:06 | 45.87666 | -4.28925 | 34204 ft | 456 kts | 44° |
| 2026-04-25 23:06 | 45.92348 | -4.22785 | 34202 ft | 455 kts | 44° |
| 2026-04-25 23:07 | 45.97007 | -4.16658 | 34205 ft | 453 kts | 44° |
| 2026-04-25 23:07 | 46.01652 | -4.10536 | 34200 ft | 452 kts | 44° |
| 2026-04-25 23:08 | 46.06278 | -4.04424 | 34199 ft | 451 kts | 44° |
| 2026-04-25 23:08 | 46.10897 | -3.98306 | 34203 ft | 451 kts | 44° |
| 2026-04-25 23:09 | 46.15511 | -3.92181 | 34198 ft | 451 kts | 44° |
| 2026-04-25 23:09 | 46.20126 | -3.86040 | 34201 ft | 451 kts | 44° |
| 2026-04-25 23:10 | 46.24708 | -3.79927 | 34196 ft | 452 kts | 44° |
| 2026-04-25 23:10 | 46.29323 | -3.73759 | 34198 ft | 452 kts | 44° |
| 2026-04-25 23:11 | 46.33514 | -3.67028 | 34190 ft | 450 kts | 59° |
| 2026-04-25 23:11 | 46.36709 | -3.59249 | 34190 ft | 450 kts | 62° |
| 2026-04-25 23:12 | 46.39848 | -3.51409 | 34191 ft | 450 kts | 61° |
| 2026-04-25 23:12 | 46.43024 | -3.43591 | 34196 ft | 450 kts | 61° |
| 2026-04-25 23:13 | 46.46219 | -3.35776 | 34192 ft | 450 kts | 60° |
| 2026-04-25 23:13 | 46.49410 | -3.27958 | 34195 ft | 450 kts | 60° |
| 2026-04-25 23:14 | 46.52590 | -3.20138 | 34189 ft | 449 kts | 60° |
| 2026-04-25 23:14 | 46.55757 | -3.12329 | 34195 ft | 448 kts | 60° |
| 2026-04-25 23:15 | 46.58906 | -3.04533 | 34188 ft | 446 kts | 60° |
| 2026-04-25 23:15 | 46.62027 | -2.96759 | 34189 ft | 444 kts | 60° |
| 2026-04-25 23:16 | 46.65132 | -2.89000 | 34186 ft | 443 kts | 60° |
| 2026-04-25 23:16 | 46.68218 | -2.81270 | 34189 ft | 441 kts | 60° |
| 2026-04-25 23:17 | 46.71299 | -2.73532 | 34188 ft | 441 kts | 60° |
| 2026-04-25 23:17 | 46.74348 | -2.65853 | 34183 ft | 441 kts | 60° |
| 2026-04-25 23:18 | 46.77415 | -2.58105 | 34182 ft | 440 kts | 60° |
| 2026-04-25 23:18 | 46.80471 | -2.50364 | 34184 ft | 440 kts | 60° |
| 2026-04-25 23:19 | 46.83522 | -2.42617 | 34183 ft | 440 kts | 60° |
| 2026-04-25 23:19 | 46.86570 | -2.34870 | 34179 ft | 439 kts | 59° |
| 2026-04-25 23:20 | 46.89222 | -2.28548 | 34181 ft | 439 kts | 58° |
| 2026-04-25 23:20 | 46.92464 | -2.20983 | 34188 ft | 439 kts | 58° |
| 2026-04-25 23:21 | 46.95675 | -2.13389 | 34181 ft | 438 kts | 58° |
| 2026-04-25 23:21 | 46.98870 | -2.05776 | 34181 ft | 438 kts | 57° |
| 2026-04-25 23:22 | 47.02765 | -1.98966 | 34182 ft | 436 kts | 38° |
| 2026-04-25 23:23 | 47.10061 | -1.91025 | 34182 ft | 435 kts | 35° |
| 2026-04-25 23:23 | 47.14878 | -1.85730 | 34187 ft | 436 kts | 36° |
| 2026-04-25 23:24 | 47.19722 | -1.80363 | 34191 ft | 436 kts | 36° |
| 2026-04-25 23:24 | 47.24578 | -1.75011 | 34183 ft | 436 kts | 36° |
| 2026-04-25 23:25 | 47.29426 | -1.69653 | 34185 ft | 435 kts | 36° |
| 2026-04-25 23:25 | 47.34226 | -1.64218 | 34179 ft | 436 kts | 40° |
| 2026-04-25 23:26 | 47.38220 | -1.57485 | 34186 ft | 437 kts | 51° |
| 2026-04-25 23:26 | 47.41883 | -1.50400 | 34187 ft | 436 kts | 51° |
| 2026-04-25 23:27 | 47.45573 | -1.43298 | 34184 ft | 436 kts | 51° |
| 2026-04-25 23:27 | 47.49286 | -1.36223 | 34181 ft | 435 kts | 51° |
| 2026-04-25 23:28 | 47.52999 | -1.29162 | 34184 ft | 434 kts | 50° |
| 2026-04-25 23:28 | 47.56702 | -1.22102 | 34184 ft | 434 kts | 50° |
| 2026-04-25 23:29 | 47.60398 | -1.15036 | 34185 ft | 433 kts | 50° |
| 2026-04-25 23:29 | 47.64058 | -1.08018 | 34184 ft | 433 kts | 50° |
| 2026-04-25 23:30 | 47.67738 | -1.00944 | 34189 ft | 432 kts | 50° |
| 2026-04-25 23:30 | 47.71405 | -0.93878 | 34188 ft | 432 kts | 50° |
| 2026-04-25 23:31 | 47.75069 | -0.86802 | 34192 ft | 432 kts | 50° |
| 2026-04-25 23:31 | 47.78715 | -0.79752 | 34203 ft | 432 kts | 50° |
| 2026-04-25 23:32 | 47.82380 | -0.72646 | 34202 ft | 433 kts | 50° |
| 2026-04-25 23:32 | 47.86038 | -0.65533 | 34202 ft | 432 kts | 50° |
| 2026-04-25 23:33 | 47.89678 | -0.58437 | 34200 ft | 427 kts | 50° |
| 2026-04-25 23:33 | 47.91457 | -0.54958 | 34189 ft | 415 kts | 50° |
| 2026-04-25 23:33 | 47.93193 | -0.51560 | 34195 ft | 410 kts | 50° |
| 2026-04-25 23:34 | 47.96627 | -0.44835 | 34069 ft | 412 kts | 50° |
| 2026-04-25 23:34 | 47.98353 | -0.41450 | 33789 ft | 408 kts | 50° |
| 2026-04-25 23:34 | 48.00073 | -0.38067 | 33398 ft | 404 kts | 50° |
| 2026-04-25 23:34 | 48.01764 | -0.34737 | 33063 ft | 399 kts | 50° |
| 2026-04-25 23:35 | 48.03435 | -0.31447 | 32676 ft | 396 kts | 50° |
| 2026-04-25 23:35 | 48.05094 | -0.28176 | 32310 ft | 393 kts | 51° |
| 2026-04-25 23:35 | 48.06720 | -0.24964 | 31954 ft | 390 kts | 50° |
| 2026-04-25 23:35 | 48.08364 | -0.21760 | 31597 ft | 387 kts | 50° |
| 2026-04-25 23:36 | 48.10009 | -0.18591 | 31246 ft | 384 kts | 50° |
| 2026-04-25 23:36 | 48.11646 | -0.15450 | 30898 ft | 382 kts | 50° |
| 2026-04-25 23:36 | 48.13276 | -0.12317 | 30550 ft | 379 kts | 50° |
| 2026-04-25 23:36 | 48.14892 | -0.09204 | 30194 ft | 377 kts | 50° |
| 2026-04-25 23:37 | 48.16493 | -0.06111 | 29790 ft | 375 kts | 50° |
| 2026-04-25 23:37 | 48.18083 | -0.03035 | 29429 ft | 371 kts | 50° |
| 2026-04-25 23:37 | 48.19652 | 0.00007 | 29087 ft | 368 kts | 50° |
| 2026-04-25 23:37 | 48.21208 | 0.03028 | 28736 ft | 364 kts | 50° |
| 2026-04-25 23:38 | 48.22731 | 0.05987 | 28379 ft | 361 kts | 50° |
| 2026-04-25 23:38 | 48.24256 | 0.08953 | 28016 ft | 358 kts | 50° |
| 2026-04-25 23:38 | 48.25771 | 0.11904 | 27669 ft | 355 kts | 50° |
| 2026-04-25 23:38 | 48.27269 | 0.14825 | 27323 ft | 352 kts | 50° |
| 2026-04-25 23:39 | 48.28757 | 0.17730 | 26972 ft | 350 kts | 50° |
| 2026-04-25 23:39 | 48.30236 | 0.20619 | 26637 ft | 347 kts | 50° |
| 2026-04-25 23:39 | 48.31703 | 0.23487 | 26299 ft | 345 kts | 50° |
| 2026-04-25 23:39 | 48.33158 | 0.26335 | 25962 ft | 343 kts | 50° |
| 2026-04-25 23:40 | 48.34603 | 0.29167 | 25628 ft | 340 kts | 50° |
| 2026-04-25 23:40 | 48.36044 | 0.31993 | 25296 ft | 339 kts | 50° |
| 2026-04-25 23:40 | 48.37472 | 0.34794 | 24967 ft | 337 kts | 49° |
| 2026-04-25 23:40 | 48.39138 | 0.37216 | 24626 ft | 331 kts | 32° |
| 2026-04-25 23:41 | 48.41127 | 0.38888 | 24307 ft | 326 kts | 19° |
| 2026-04-25 23:41 | 48.43266 | 0.39837 | 24004 ft | 323 kts | 12° |
| 2026-04-25 23:41 | 48.45484 | 0.40642 | 23619 ft | 323 kts | 12° |
| 2026-04-25 23:41 | 48.47641 | 0.41400 | 23262 ft | 321 kts | 12° |
| 2026-04-25 23:42 | 48.49816 | 0.42170 | 22908 ft | 320 kts | 12° |
| 2026-04-25 23:42 | 48.51970 | 0.42942 | 22577 ft | 317 kts | 12° |
| 2026-04-25 23:42 | 48.54114 | 0.43721 | 22252 ft | 315 kts | 12° |
| 2026-04-25 23:42 | 48.56248 | 0.44503 | 21931 ft | 313 kts | 12° |
| 2026-04-25 23:43 | 48.58336 | 0.45273 | 21616 ft | 311 kts | 12° |
| 2026-04-25 23:43 | 48.60433 | 0.46048 | 21304 ft | 309 kts | 12° |
| 2026-04-25 23:43 | 48.62517 | 0.46821 | 20993 ft | 307 kts | 12° |
| 2026-04-25 23:43 | 48.64593 | 0.47592 | 20677 ft | 306 kts | 12° |
| 2026-04-25 23:44 | 48.66659 | 0.48360 | 20370 ft | 304 kts | 12° |
| 2026-04-25 23:44 | 48.68711 | 0.49123 | 20064 ft | 303 kts | 12° |
| 2026-04-25 23:44 | 48.70754 | 0.49884 | 19762 ft | 302 kts | 12° |
| 2026-04-25 23:44 | 48.72795 | 0.50644 | 19460 ft | 303 kts | 12° |
| 2026-04-25 23:45 | 48.74851 | 0.51411 | 19157 ft | 305 kts | 12° |
| 2026-04-25 23:45 | 48.76932 | 0.52188 | 18852 ft | 312 kts | 12° |
| 2026-04-25 23:45 | 48.79033 | 0.52963 | 18521 ft | 316 kts | 11° |
| 2026-04-25 23:45 | 48.81187 | 0.53544 | 18153 ft | 314 kts | 7° |
| 2026-04-25 23:46 | 48.83353 | 0.53977 | 17809 ft | 312 kts | 6° |
| 2026-04-25 23:46 | 48.85503 | 0.54372 | 17471 ft | 310 kts | 6° |
| 2026-04-25 23:46 | 48.87638 | 0.54767 | 17149 ft | 308 kts | 6° |
| 2026-04-25 23:46 | 48.89762 | 0.55169 | 16829 ft | 306 kts | 6° |
| 2026-04-25 23:47 | 48.91867 | 0.55576 | 16518 ft | 304 kts | 6° |
| 2026-04-25 23:47 | 48.93967 | 0.55989 | 16206 ft | 303 kts | 6° |
| 2026-04-25 23:47 | 48.96048 | 0.56403 | 15896 ft | 301 kts | 6° |
| 2026-04-25 23:47 | 48.98122 | 0.56817 | 15588 ft | 299 kts | 7° |
| 2026-04-25 23:48 | 49.00182 | 0.57230 | 15283 ft | 298 kts | 7° |
| 2026-04-25 23:48 | 49.02232 | 0.57643 | 14976 ft | 297 kts | 7° |
| 2026-04-25 23:48 | 49.04251 | 0.58050 | 14680 ft | 295 kts | 7° |
| 2026-04-25 23:48 | 49.06292 | 0.58462 | 14372 ft | 295 kts | 7° |
| 2026-04-25 23:49 | 49.08323 | 0.58872 | 14071 ft | 294 kts | 7° |
| 2026-04-25 23:49 | 49.10348 | 0.59282 | 13729 ft | 293 kts | 7° |
| 2026-04-25 23:49 | 49.12364 | 0.59690 | 13409 ft | 291 kts | 7° |
| 2026-04-25 23:49 | 49.14322 | 0.60086 | 13098 ft | 290 kts | 7° |
| 2026-04-25 23:50 | 49.16316 | 0.60491 | 12794 ft | 288 kts | 7° |
| 2026-04-25 23:50 | 49.18272 | 0.60887 | 12497 ft | 286 kts | 7° |
| 2026-04-25 23:50 | 49.20063 | 0.61551 | 12257 ft | 285 kts | 25° |
| 2026-04-25 23:50 | 49.21676 | 0.63273 | 12243 ft | 285 kts | 42° |
| 2026-04-25 23:51 | 49.23113 | 0.65439 | 12249 ft | 293 kts | 45° |
| 2026-04-25 23:51 | 49.24547 | 0.67698 | 12245 ft | 295 kts | 45° |
| 2026-04-25 23:51 | 49.25956 | 0.69931 | 12231 ft | 294 kts | 45° |
| 2026-04-25 23:51 | 49.27381 | 0.72182 | 12221 ft | 293 kts | 45° |
| 2026-04-25 23:52 | 49.28805 | 0.74418 | 12221 ft | 292 kts | 45° |
| 2026-04-25 23:52 | 49.30214 | 0.76624 | 12228 ft | 292 kts | 45° |
| 2026-04-25 23:52 | 49.31634 | 0.78843 | 12223 ft | 291 kts | 44° |
| 2026-04-25 23:52 | 49.33057 | 0.81063 | 12230 ft | 291 kts | 44° |
| 2026-04-25 23:53 | 49.34481 | 0.83284 | 12222 ft | 291 kts | 44° |
| 2026-04-25 23:53 | 49.35905 | 0.85504 | 12232 ft | 292 kts | 44° |
| 2026-04-25 23:53 | 49.37318 | 0.87710 | 12227 ft | 292 kts | 44° |
| 2026-04-25 23:53 | 49.38744 | 0.89937 | 12231 ft | 293 kts | 44° |
| 2026-04-25 23:54 | 49.40178 | 0.92178 | 12231 ft | 293 kts | 44° |
| 2026-04-25 23:54 | 49.41591 | 0.94389 | 12214 ft | 294 kts | 44° |
| 2026-04-25 23:54 | 49.43026 | 0.96635 | 12217 ft | 294 kts | 44° |
| 2026-04-25 23:54 | 49.44456 | 0.98876 | 12219 ft | 294 kts | 44° |
| 2026-04-25 23:55 | 49.45892 | 1.01126 | 12220 ft | 294 kts | 44° |
| 2026-04-25 23:55 | 49.47330 | 1.03384 | 12221 ft | 294 kts | 44° |
| 2026-04-25 23:55 | 49.48764 | 1.05636 | 12214 ft | 294 kts | 44° |
| 2026-04-25 23:55 | 49.50218 | 1.07919 | 11762 ft | 304 kts | 44° |
| 2026-04-25 23:56 | 49.51685 | 1.10224 | 11339 ft | 306 kts | 44° |
| 2026-04-25 23:56 | 49.53182 | 1.12579 | 10894 ft | 308 kts | 44° |
| 2026-04-25 23:56 | 49.54687 | 1.14947 | 10491 ft | 308 kts | 44° |
| 2026-04-25 23:56 | 49.56141 | 1.17241 | 10379 ft | 291 kts | 44° |
| 2026-04-25 23:57 | 49.57524 | 1.19424 | 10219 ft | 278 kts | 44° |
| 2026-04-25 23:57 | 49.58646 | 1.21816 | 9743 ft | 278 kts | 67° |
| 2026-04-25 23:57 | 49.59073 | 1.24675 | 9349 ft | 278 kts | 83° |
| 2026-04-25 23:57 | 49.59296 | 1.27675 | 9292 ft | 283 kts | 82° |
| 2026-04-25 23:58 | 49.59503 | 1.30425 | 9241 ft | 281 kts | 82° |
| 2026-04-25 23:58 | 49.59735 | 1.33401 | 9226 ft | 277 kts | 82° |
| 2026-04-25 23:58 | 49.59968 | 1.36367 | 9036 ft | 281 kts | 82° |
| 2026-04-25 23:58 | 49.60208 | 1.39373 | 8786 ft | 283 kts | 82° |
| 2026-04-25 23:59 | 49.60447 | 1.42373 | 8532 ft | 280 kts | 82° |
| 2026-04-25 23:59 | 49.60680 | 1.45298 | 8299 ft | 276 kts | 82° |
| 2026-04-25 23:59 | 49.60914 | 1.48230 | 8069 ft | 272 kts | 82° |
| 2026-04-25 23:59 | 49.61143 | 1.51120 | 7833 ft | 270 kts | 82° |
| 2026-04-26 00:00 | 49.61370 | 1.53991 | 7613 ft | 268 kts | 82° |
| 2026-04-26 00:00 | 49.61591 | 1.56803 | 7387 ft | 267 kts | 82° |
| 2026-04-26 00:00 | 49.61756 | 1.59653 | 7125 ft | 267 kts | 90° |
| 2026-04-26 00:00 | 49.61598 | 1.62522 | 6843 ft | 268 kts | 96° |
| 2026-04-26 00:01 | 49.61358 | 1.65382 | 6533 ft | 268 kts | 97° |
| 2026-04-26 00:01 | 49.61132 | 1.68199 | 6227 ft | 268 kts | 96° |
| 2026-04-26 00:01 | 49.60920 | 1.71059 | 5915 ft | 268 kts | 96° |
| 2026-04-26 00:01 | 49.60716 | 1.73911 | 5580 ft | 268 kts | 95° |
| 2026-04-26 00:02 | 49.60340 | 1.76718 | 5379 ft | 261 kts | 114° |
| 2026-04-26 00:02 | 49.59457 | 1.79056 | 5158 ft | 252 kts | 122° |
| 2026-04-26 00:02 | 49.58495 | 1.81270 | 4853 ft | 243 kts | 123° |
| 2026-04-26 00:02 | 49.57572 | 1.83376 | 4527 ft | 232 kts | 123° |
| 2026-04-26 00:03 | 49.56690 | 1.85395 | 4217 ft | 220 kts | 123° |
| 2026-04-26 00:03 | 49.55869 | 1.87278 | 3932 ft | 208 kts | 122° |
| 2026-04-26 00:03 | 49.55082 | 1.89084 | 3653 ft | 197 kts | 122° |
| 2026-04-26 00:03 | 49.54335 | 1.90799 | 3403 ft | 187 kts | 122° |
| 2026-04-26 00:04 | 49.53628 | 1.92424 | 3151 ft | 177 kts | 122° |
| 2026-04-26 00:04 | 49.52960 | 1.93962 | 2926 ft | 173 kts | 122° |
| 2026-04-26 00:04 | 49.52287 | 1.95509 | 2714 ft | 174 kts | 122° |
| 2026-04-26 00:04 | 49.51617 | 1.97051 | 2470 ft | 169 kts | 121° |
| 2026-04-26 00:05 | 49.50990 | 1.98491 | 2265 ft | 154 kts | 121° |
| 2026-04-26 00:05 | 49.50416 | 1.99812 | 2086 ft | 145 kts | 121° |
| 2026-04-26 00:05 | 49.49861 | 2.01093 | 1857 ft | 142 kts | 121° |
| 2026-04-26 00:05 | 49.49321 | 2.02351 | 1664 ft | 143 kts | 121° |
| 2026-04-26 00:06 | 49.48763 | 2.03608 | 1474 ft | 136 kts | 121° |
| 2026-04-26 00:06 | 49.48245 | 2.04804 | 1270 ft | 136 kts | 119° |
| 2026-04-26 00:06 | 49.47705 | 2.06058 | 1136 ft | 144 kts | 121° |
| 2026-04-26 00:06 | 49.47151 | 2.07324 | 939 ft | 142 kts | 120° |
| 2026-04-26 00:07 | 49.46611 | 2.08583 | 700 ft | 141 kts | 121° |
| 2026-04-26 00:07 | 49.46071 | 2.09825 | 490 ft | 138 kts | 120° |
| 2026-04-26 00:07 | 49.45548 | 2.11034 | 351 ft | 129 kts | 119° |
| 2026-04-26 00:07 | 49.45143 | 2.11970 | 335 ft | 74 kts | 124° |
| 2026-04-26 00:08 | 49.45033 | 2.12377 | 328 ft | 27 kts | 92° |
| 2026-04-26 00:08 | 49.45024 | 2.12640 | 324 ft | 15 kts | 94° |
| 2026-04-26 00:08 | 49.44990 | 2.12788 | 319 ft | 15 kts | 118° |
| 2026-04-26 00:08 | 49.44958 | 2.12876 | 317 ft | 14 kts | 124° |
| 2026-04-26 00:09 | 49.44891 | 2.13016 | 314 ft | 19 kts | 140° |
| 2026-04-26 00:09 | 49.44802 | 2.13221 | 308 ft | 26 kts | 123° |
| 2026-04-26 00:09 | 49.44672 | 2.13261 | 306 ft | 21 kts | 224° |
| 2026-04-26 00:09 | 49.44677 | 2.13048 | 311 ft | 24 kts | 299° |
| 2026-04-26 00:10 | 49.44786 | 2.12797 | 315 ft | 32 kts | 304° |
| 2026-04-26 00:10 | 49.44921 | 2.12486 | 322 ft | 37 kts | 303° |
| 2026-04-26 00:10 | 49.45063 | 2.12160 | 330 ft | 37 kts | 304° |
| 2026-04-26 00:10 | 49.45209 | 2.11822 | 332 ft | 36 kts | 303° |
| 2026-04-26 00:11 | 49.45255 | 2.11716 | 332 ft | 20 kts | 303° |
| 2026-04-26 00:11 | 49.45394 | 2.11396 | 337 ft | 9 kts | 304° |
| 2026-04-26 00:11 | 49.45451 | 2.11318 | 340 ft | 12 kts | 355° |
| 2026-04-26 00:11 | 49.45524 | 2.11391 | 353 ft | 14 kts | 41° |
| 2026-04-26 00:12 | 49.45617 | 2.11517 | 348 ft | 20 kts | 41° |
| 2026-04-26 00:12 | 49.45706 | 2.11606 | 346 ft | 8 kts | 357° |
| 2026-04-26 00:12 | 49.45758 | 2.11567 | 354 ft | 11 kts | 315° |
| 2026-04-26 00:12 | 49.45798 | 2.11437 | 349 ft | 17 kts | 269° |
| 2026-04-26 00:13 | 49.45794 | 2.11391 | 348 ft | 6 kts | 273° |
| 2026-04-26 00:13 | 49.45814 | 2.11352 | 352 ft | 6 kts | 310° |
| 2026-04-26 00:13 | 49.45822 | 2.11337 | 346 ft | 2 kts | 310° |
| 2026-04-26 00:13 | 49.45826 | 2.11330 | 346 ft | 0 kts | 311° |